createdAt,value
2022-10-04T00:01:06.971Z,100825.27
2022-10-04T00:06:18.257Z,100825.84
2022-10-04T00:11:26.512Z,100826.34
2022-10-04T00:16:35.051Z,100833.67
2022-10-04T00:22:14.076Z,100828.23
2022-10-04T00:27:23.938Z,100833.17
2022-10-04T00:32:30.789Z,100829.55
2022-10-04T00:37:57.363Z,100827.59
2022-10-04T00:43:06.608Z,100819.38
2022-10-04T00:48:34.996Z,100819.89
2022-10-04T00:53:48.868Z,100817.36
2022-10-04T00:59:13.777Z,100823.60
2022-10-04T01:04:28.865Z,100819.23
2022-10-04T01:09:37.448Z,100817.20
2022-10-04T01:14:53.938Z,100817.44
2022-10-04T01:19:59.050Z,100810.63
2022-10-04T01:25:05.668Z,100809.53
2022-10-04T01:30:12.910Z,100799.89
2022-10-04T01:35:18.674Z,100794.92
2022-10-04T01:40:23.139Z,100797.92
2022-10-04T01:45:35.714Z,100802.58
2022-10-04T01:50:44.838Z,100810.29
2022-10-04T01:55:54.354Z,100813.89
2022-10-04T02:01:06.803Z,100812.98
2022-10-04T02:06:21.668Z,100815.66
2022-10-04T02:11:30.712Z,100811.73
2022-10-04T02:16:40.346Z,100811.68
2022-10-04T02:21:49.942Z,100821.09
2022-10-04T02:26:55.302Z,100816.19
2022-10-04T02:32:23.992Z,100820.14
2022-10-04T02:37:29.266Z,100830.44
2022-10-04T02:42:41.641Z,100834.71
2022-10-04T02:47:52.076Z,100834.77
2022-10-04T02:53:02.011Z,100842.67
2022-10-04T02:58:11.166Z,100852.27
2022-10-04T03:03:22.864Z,100854.94
2022-10-04T03:08:30.321Z,100848.67
2022-10-04T03:13:37.003Z,100853.66
2022-10-04T03:18:43.244Z,100856.16
2022-10-04T03:23:53.833Z,100856.16
2022-10-04T03:29:00.320Z,100856.46
2022-10-04T03:34:04.468Z,100860.19
2022-10-04T03:39:11.527Z,100864.31
2022-10-04T03:44:18.350Z,100871.17
2022-10-04T03:49:32.713Z,100872.91
2022-10-04T03:54:37.041Z,100875.89
2022-10-04T03:59:41.669Z,100877.45
2022-10-04T04:04:55.277Z,100875.17
2022-10-04T04:10:06.521Z,100876.96
2022-10-04T04:15:14.097Z,100877.70
2022-10-04T04:20:23.755Z,100880.52
2022-10-04T04:25:29.265Z,100873.73
2022-10-04T04:30:37.389Z,100879.70
2022-10-04T04:35:41.029Z,100886.64
2022-10-04T04:40:45.947Z,100893.73
2022-10-04T04:46:03.237Z,100895.27
2022-10-04T04:51:21.864Z,100894.75
2022-10-04T04:56:33.932Z,100896.67
2022-10-04T05:01:45.720Z,100897.39
2022-10-04T05:07:00.729Z,100904.23
2022-10-04T05:12:09.912Z,100907.02
2022-10-04T05:17:20.048Z,100911.98
2022-10-04T05:22:26.627Z,100916.20
2022-10-04T05:27:35.559Z,100928.14
2022-10-04T05:32:50.524Z,100929.08
2022-10-04T05:38:04.284Z,100934.74
2022-10-04T05:43:24.663Z,100938.91
2022-10-04T05:48:28.303Z,100941.86
2022-10-04T05:53:33.421Z,100947.78
2022-10-04T05:58:53.241Z,100950.76
2022-10-04T06:04:15.984Z,100954.73
2022-10-04T06:09:35.498Z,100954.52
2022-10-04T06:14:58.005Z,100954.23
2022-10-04T06:20:39.081Z,100964.20
2022-10-04T06:25:48.628Z,100967.46
2022-10-04T06:31:14.379Z,100969.36
2022-10-04T06:36:44.284Z,100971.44
2022-10-04T06:42:26.037Z,100972.83
2022-10-04T06:47:49.098Z,100981.87
2022-10-04T06:53:05.806Z,100987.79
2022-10-04T06:58:27.476Z,100991.58
2022-10-04T07:03:39.621Z,100995.96
2022-10-04T07:08:50.448Z,101003.84
2022-10-04T07:13:59.086Z,101007.75
2022-10-04T07:19:20.337Z,101012.55
2022-10-04T07:24:32.177Z,101026.44
2022-10-04T07:29:42.259Z,101025.84
2022-10-04T07:34:50.273Z,101019.85
2022-10-04T07:40:02.343Z,101018.40
2022-10-04T07:45:21.330Z,101016.73
2022-10-04T07:50:28.239Z,101026.45
2022-10-04T07:55:44.427Z,101034.45
2022-10-04T08:00:55.829Z,101046.41
2022-10-04T08:06:11.528Z,101057.50
2022-10-04T08:11:24.415Z,101066.61
2022-10-04T08:16:36.860Z,101072.03
2022-10-04T08:21:48.764Z,101079.33
2022-10-04T08:27:16.687Z,101086.39
2022-10-04T08:32:26.980Z,101087.70
2022-10-04T08:37:40.663Z,101090.15
2022-10-04T08:43:15.443Z,101094.16
2022-10-04T08:49:04.269Z,101093.62
2022-10-04T08:54:21.909Z,101095.38
2022-10-04T09:00:00.602Z,101098.10
2022-10-04T09:05:21.779Z,101101.54
2022-10-04T09:10:41.862Z,101113.48
2022-10-04T09:15:56.386Z,101116.17
2022-10-04T09:21:10.218Z,101125.45
2022-10-04T09:26:22.497Z,101123.23
2022-10-04T09:32:09.782Z,101130.20
2022-10-04T09:37:29.625Z,101126.64
2022-10-04T09:43:06.428Z,101135.17
2022-10-04T09:48:25.832Z,101141.10
2022-10-04T09:53:52.557Z,101139.45
2022-10-04T09:59:21.593Z,101147.24
2022-10-04T10:04:40.975Z,101149.44
2022-10-04T10:10:09.666Z,101160.50
2022-10-04T10:15:22.139Z,101160.95
2022-10-04T10:21:00.260Z,101164.31
2022-10-04T10:26:27.658Z,101162.27
2022-10-04T10:31:58.646Z,101168.58
2022-10-04T10:37:09.590Z,101176.04
2022-10-04T10:42:40.880Z,101184.54
2022-10-04T10:47:55.632Z,101191.58
2022-10-04T10:53:23.040Z,101187.36
2022-10-04T10:59:03.183Z,101189.00
2022-10-04T11:04:35.169Z,101184.88
2022-10-04T11:10:07.701Z,101188.42
2022-10-04T11:15:39.884Z,101196.51
2022-10-04T11:21:07.592Z,101196.16
2022-10-04T11:26:31.987Z,101201.11
2022-10-04T11:32:20.113Z,101207.92
2022-10-04T11:37:40.790Z,101205.02
2022-10-04T11:43:04.716Z,101213.69
2022-10-04T11:48:24.764Z,101214.55
2022-10-04T11:53:52.553Z,101211.80
2022-10-04T11:59:11.454Z,101208.77
2022-10-04T12:04:44.147Z,101206.90
2022-10-04T12:10:01.152Z,101203.55
2022-10-04T12:15:21.858Z,101202.12
2022-10-04T12:20:50.719Z,101205.77
2022-10-04T12:26:14.663Z,101209.33
2022-10-04T12:31:27.722Z,101209.45
2022-10-04T12:37:10.173Z,101211.98
2022-10-04T12:42:24.200Z,101213.58
2022-10-04T12:47:49.141Z,101214.08
2022-10-04T12:52:58.922Z,101208.41
2022-10-04T12:58:10.613Z,101206.29
2022-10-04T13:03:42.933Z,101208.54
2022-10-04T13:09:05.515Z,101211.98
2022-10-04T13:14:38.221Z,101226.15
2022-10-04T13:19:52.753Z,101229.32
2022-10-04T13:25:09.590Z,101223.77
2022-10-04T13:30:23.196Z,101226.83
2022-10-04T13:35:36.533Z,101227.47
2022-10-04T13:41:03.253Z,101235.59
2022-10-04T13:46:20.024Z,101239.30
2022-10-04T13:51:46.770Z,101240.99
2022-10-04T13:57:05.133Z,101243.28
2022-10-04T14:02:21.985Z,101242.40
2022-10-04T14:07:44.398Z,101247.69
2022-10-04T14:13:07.555Z,101244.17
2022-10-04T14:18:57.545Z,101245.58
2022-10-04T14:24:33.891Z,101243.65
2022-10-04T14:29:55.547Z,101241.26
2022-10-04T14:35:09.207Z,101238.04
2022-10-04T14:40:49.511Z,101238.91
2022-10-04T14:46:11.856Z,101238.65
2022-10-04T14:51:36.143Z,101241.06
2022-10-04T14:56:57.677Z,101246.23
2022-10-04T15:02:40.085Z,101248.27
2022-10-04T15:07:49.463Z,101254.91
2022-10-04T15:13:11.453Z,101259.96
2022-10-04T15:18:32.742Z,101263.49
2022-10-04T15:23:41.537Z,101272.11
2022-10-04T15:29:02.300Z,101272.95
2022-10-04T15:34:20.547Z,101270.52
2022-10-04T15:39:40.019Z,101277.92
2022-10-04T15:45:22.972Z,101287.00
2022-10-04T15:50:31.084Z,101293.11
2022-10-04T15:55:57.640Z,101296.70
2022-10-04T16:01:25.794Z,101292.57
2022-10-04T16:06:39.115Z,101291.52
2022-10-04T16:12:05.242Z,101293.13
2022-10-04T16:17:26.627Z,101302.00
2022-10-04T16:22:32.177Z,101305.30
2022-10-04T16:27:50.751Z,101311.45
2022-10-04T16:33:11.786Z,101309.71
2022-10-04T16:38:24.385Z,101303.71
2022-10-04T16:43:32.135Z,101308.48
2022-10-04T16:48:46.571Z,101318.59
2022-10-04T16:53:58.920Z,101321.46
2022-10-04T16:59:04.353Z,101329.91
2022-10-04T17:04:25.639Z,101334.98
2022-10-04T17:09:35.119Z,101343.02
2022-10-04T17:15:07.226Z,101339.73
2022-10-04T17:20:22.107Z,101339.55
2022-10-04T17:25:33.206Z,101342.86
2022-10-04T17:30:50.153Z,101341.98
2022-10-04T17:36:19.130Z,101351.38
2022-10-04T17:41:34.193Z,101351.98
2022-10-04T17:46:45.008Z,101347.47
2022-10-04T17:52:11.388Z,101344.71
2022-10-04T17:57:30.363Z,101343.66
2022-10-04T18:02:54.680Z,101339.78
2022-10-04T18:08:02.862Z,101343.81
2022-10-04T18:13:17.112Z,101348.05
2022-10-04T18:18:24.712Z,101346.23
2022-10-04T18:23:34.927Z,101351.46
2022-10-04T18:28:44.249Z,101354.64
2022-10-04T18:33:53.432Z,101363.21
2022-10-04T18:39:17.801Z,101354.62
2022-10-04T18:44:34.246Z,101355.85
2022-10-04T18:49:57.534Z,101359.70
2022-10-04T18:55:20.758Z,101373.21
2022-10-04T19:00:48.718Z,101383.65
2022-10-04T19:06:05.470Z,101380.43
2022-10-04T19:11:22.394Z,101378.45
2022-10-04T19:16:45.823Z,101378.46
2022-10-04T19:22:00.811Z,101389.13
2022-10-04T19:27:10.132Z,101385.08
2022-10-04T19:32:26.989Z,101388.25
2022-10-04T19:37:37.488Z,101399.21
2022-10-04T19:42:51.993Z,101415.75
2022-10-04T19:47:58.940Z,101416.33
2022-10-04T19:53:14.042Z,101403.92
2022-10-04T19:58:31.371Z,101402.31
2022-10-04T20:03:35.341Z,101406.16
2022-10-04T20:08:58.045Z,101402.59
2022-10-04T20:14:46.460Z,101402.87
2022-10-04T20:19:50.083Z,101400.17
2022-10-04T20:24:55.732Z,101402.59
2022-10-04T20:30:03.432Z,101403.23
2022-10-04T20:35:10.672Z,101409.54
2022-10-04T20:40:43.973Z,101421.85
2022-10-04T20:45:49.492Z,101422.39
2022-10-04T20:51:18.372Z,101415.59
2022-10-04T20:56:28.852Z,101427.30
2022-10-04T21:01:42.860Z,101430.31
2022-10-04T21:06:53.461Z,101435.21
2022-10-04T21:11:58.763Z,101432.89
2022-10-04T21:17:05.297Z,101442.69
2022-10-04T21:22:10.259Z,101445.12
2022-10-04T21:27:26.988Z,101445.95
2022-10-04T21:32:36.411Z,101447.59
2022-10-04T21:37:39.961Z,101449.77
2022-10-04T21:42:43.475Z,101445.98
2022-10-04T21:47:46.990Z,101445.14
2022-10-04T21:52:50.558Z,101436.39
2022-10-04T21:57:54.062Z,101430.42
2022-10-04T22:02:57.786Z,101428.98
2022-10-04T22:08:01.307Z,101433.55
2022-10-04T22:13:05.086Z,101435.31
2022-10-04T22:18:09.243Z,101433.02
2022-10-04T22:23:18.077Z,101425.98
2022-10-04T22:28:24.748Z,101418.02
2022-10-04T22:33:33.551Z,101422.55
2022-10-04T22:38:37.631Z,101415.58
2022-10-04T22:43:41.593Z,101414.04
2022-10-04T22:48:46.411Z,101406.21
2022-10-04T22:53:50.167Z,101403.70
2022-10-04T22:58:54.565Z,101394.11
2022-10-04T23:03:58.863Z,101378.44
2022-10-04T23:09:02.527Z,101371.86
2022-10-04T23:14:06.311Z,101381.70
2022-10-04T23:19:14.299Z,101389.74
2022-10-04T23:24:20.251Z,101379.52
2022-10-04T23:29:26.685Z,101379.55
2022-10-04T23:34:35.418Z,101382.25
2022-10-04T23:39:41.660Z,101378.49
2022-10-04T23:44:46.822Z,101380.14
2022-10-04T23:49:52.415Z,101368.77
2022-10-04T23:54:56.227Z,101363.29
